Hauptseite
METAR-TAF:

METAR-TAF

Flughäfen :

Flughafen Luxemburg

Luxemburg, Luxemburg

Breite: 49-37N, Länge: 006-13E, Höhe: 376 m

Beobachtung

Neuester Wetterbericht von vor 34 Minuten, um 20:50 UTC
Wind 2 kt aus Nord
Temperatur 4°C
Luftfeuchtigkeit 65%
Luftdruck 1020 hPa
Sichtweite 10 km oder mehr
keine Wolken unter 1500 m und keine Kumulonimbus oder Gewitterwolken

METAR: ELLX 032050Z 36002KT CAVOK 04/M02 Q1020 NOSIG

Zeit: 23:24 (21:24 UTC)

Prognose

Neuester Wetterbericht von vor 4 Stunden und 24 Minuten, um 17:00 UTC
Gültige Prognose vom 03 um 18 UTC bis 04 um 24 UTC
Wind 7 kt aus Nordwest
Sichtweite 10 km oder mehr
Leicht bewölkt in der Höhe von 4000 ft
Durchbrochene Bewölkung in der Höhe von 5000 ft

TAF: ELLX 031700Z 0318/0424 32007KT 9999 FEW040 BKN050

Wetterbeobachtungen und Prognosen von mehr als 4000 Flughäfen (METAR und TAF Bericht).

Die verfügbaren Stationen werden durch gelbe und rote Markierungen auf der Karte dargestellt.

Führen Sie die Maus auf sie, um den Namen der Station zu sehen.

Darauf klicken, um die Beobachtung von Wetterbeobachtungen und Prognosen zu sehen.

Um die Karte zu ändern : klicken Sie auf den grünen Tasten mit einem schwarzen Kreuz Zum Vergrößern, auf den grünen Button mit einem Gedankenstrich zu verkleinern, oder auf die grünen Pfeile für benachbarte Karten.


METAR-TAF: